Groves, North Carolina
Current Conditions -  °F | °C
As of 8:54 PM on Sunday 25 Jan 2015 (Local Time) from KAKH Reporting Station
Overcast Overcast  
Wind Chill: 46°   Ceiling: 10000
Heat Index: 48°   Visibility: 10mi
Dew Point: 30°   Wind: 5mph
Humidity: 50%   Direction: 190°S
Pressure: 29.78"   Gusts: NA
Location:  35.2205°N, 81.2501°W
Report Text: KAKH 260154Z AUTO 19004KT 10SM OVC100 09/M01 A2978 RMK AO2 SLP088 T00891011
Loading
Personal Weather Stations






























Interactive Weather Map New forecast layout! Learn more

10-Day Weather Forecast

Advertisements
Track Severe Weather on mobile